sensor_id;sensor_type;location;lat;lon;timestamp;P1;durP1;ratioP1;P2;durP2;ratioP2
40755;SDS011;26461;45.630;9.418;2023-03-14T00:00:12;18.13;;;10.32;;
40755;SDS011;26461;45.630;9.418;2023-03-14T00:03:23;13.95;;;8.80;;
40755;SDS011;26461;45.630;9.418;2023-03-14T00:06:34;19.83;;;11.98;;
40755;SDS011;26461;45.630;9.418;2023-03-14T00:09:44;13.85;;;13.13;;
40755;SDS011;26461;45.630;9.418;2023-03-14T00:12:54;24.42;;;13.18;;
40755;SDS011;26461;45.630;9.418;2023-03-14T00:16:05;15.52;;;11.68;;
40755;SDS011;26461;45.630;9.418;2023-03-14T00:19:16;25.25;;;12.70;;
40755;SDS011;26461;45.630;9.418;2023-03-14T00:22:26;15.27;;;11.70;;
40755;SDS011;26461;45.630;9.418;2023-03-14T00:25:36;33.15;;;14.15;;
40755;SDS011;26461;45.630;9.418;2023-03-14T00:28:47;21.33;;;9.88;;
40755;SDS011;26461;45.630;9.418;2023-03-14T00:31:59;13.77;;;10.00;;
40755;SDS011;26461;45.630;9.418;2023-03-14T00:35:10;27.83;;;12.13;;
40755;SDS011;26461;45.630;9.418;2023-03-14T00:38:19;22.48;;;10.93;;
40755;SDS011;26461;45.630;9.418;2023-03-14T00:41:29;31.20;;;13.68;;
40755;SDS011;26461;45.630;9.418;2023-03-14T00:44:39;18.80;;;12.23;;
40755;SDS011;26461;45.630;9.418;2023-03-14T00:47:49;23.25;;;15.45;;
40755;SDS011;26461;45.630;9.418;2023-03-14T00:50:59;21.45;;;18.60;;
40755;SDS011;26461;45.630;9.418;2023-03-14T00:54:10;23.35;;;15.50;;
40755;SDS011;26461;45.630;9.418;2023-03-14T00:57:20;29.58;;;18.17;;
40755;SDS011;26461;45.630;9.418;2023-03-14T01:00:30;28.77;;;18.08;;
40755;SDS011;26461;45.630;9.418;2023-03-14T01:03:39;24.77;;;17.88;;
40755;SDS011;26461;45.630;9.418;2023-03-14T01:06:49;26.35;;;19.25;;
40755;SDS011;26461;45.630;9.418;2023-03-14T01:09:59;21.38;;;15.95;;
40755;SDS011;26461;45.630;9.418;2023-03-14T01:13:09;34.75;;;15.05;;
40755;SDS011;26461;45.630;9.418;2023-03-14T01:16:20;16.83;;;15.35;;
40755;SDS011;26461;45.630;9.418;2023-03-14T01:19:31;24.58;;;15.57;;
40755;SDS011;26461;45.630;9.418;2023-03-14T01:22:36;24.70;;;15.85;;
40755;SDS011;26461;45.630;9.418;2023-03-14T01:25:48;25.42;;;16.20;;
40755;SDS011;26461;45.630;9.418;2023-03-14T01:28:54;15.75;;;12.88;;
40755;SDS011;26461;45.630;9.418;2023-03-14T01:32:05;23.13;;;14.57;;
40755;SDS011;26461;45.630;9.418;2023-03-14T01:35:15;26.65;;;18.45;;
40755;SDS011;26461;45.630;9.418;2023-03-14T01:38:25;22.50;;;18.88;;
40755;SDS011;26461;45.630;9.418;2023-03-14T01:41:36;20.52;;;14.55;;
40755;SDS011;26461;45.630;9.418;2023-03-14T01:48:07;22.55;;;15.50;;
40755;SDS011;26461;45.630;9.418;2023-03-14T01:51:13;23.90;;;16.75;;
40755;SDS011;26461;45.630;9.418;2023-03-14T01:57:44;17.77;;;15.90;;
40755;SDS011;26461;45.630;9.418;2023-03-14T02:00:58;20.02;;;13.52;;
40755;SDS011;26461;45.630;9.418;2023-03-14T02:04:09;19.73;;;14.02;;
40755;SDS011;26461;45.630;9.418;2023-03-14T02:07:30;18.42;;;13.27;;
40755;SDS011;26461;45.630;9.418;2023-03-14T02:10:55;21.52;;;13.30;;
40755;SDS011;26461;45.630;9.418;2023-03-14T02:14:29;16.65;;;12.30;;
40755;SDS011;26461;45.630;9.418;2023-03-14T02:17:56;20.42;;;15.80;;
40755;SDS011;26461;45.630;9.418;2023-03-14T02:21:57;19.00;;;11.43;;
40755;SDS011;26461;45.630;9.418;2023-03-14T02:25:36;13.82;;;12.52;;
40755;SDS011;26461;45.630;9.418;2023-03-14T02:28:50;22.10;;;13.27;;
40755;SDS011;26461;45.630;9.418;2023-03-14T02:32:02;15.15;;;9.48;;
40755;SDS011;26461;45.630;9.418;2023-03-14T02:35:14;9.38;;;8.18;;
40755;SDS011;26461;45.630;9.418;2023-03-14T02:38:33;31.25;;;10.77;;
40755;SDS011;26461;45.630;9.418;2023-03-14T02:41:55;19.77;;;10.50;;
40755;SDS011;26461;45.630;9.418;2023-03-14T02:49:12;18.90;;;9.15;;
40755;SDS011;26461;45.630;9.418;2023-03-14T02:52:17;16.67;;;9.50;;
40755;SDS011;26461;45.630;9.418;2023-03-14T02:55:27;10.60;;;7.38;;
40755;SDS011;26461;45.630;9.418;2023-03-14T02:58:42;11.85;;;6.47;;
40755;SDS011;26461;45.630;9.418;2023-03-14T03:02:22;18.88;;;6.90;;
40755;SDS011;26461;45.630;9.418;2023-03-14T03:05:32;19.40;;;8.57;;
40755;SDS011;26461;45.630;9.418;2023-03-14T03:08:43;19.55;;;8.63;;
40755;SDS011;26461;45.630;9.418;2023-03-14T03:11:53;15.38;;;7.15;;
40755;SDS011;26461;45.630;9.418;2023-03-14T03:15:05;18.52;;;10.18;;
40755;SDS011;26461;45.630;9.418;2023-03-14T03:18:15;13.65;;;7.43;;
40755;SDS011;26461;45.630;9.418;2023-03-14T03:21:25;17.45;;;5.68;;
40755;SDS011;26461;45.630;9.418;2023-03-14T03:24:35;9.35;;;6.35;;
40755;SDS011;26461;45.630;9.418;2023-03-14T03:27:45;15.75;;;7.25;;
40755;SDS011;26461;45.630;9.418;2023-03-14T03:30:55;11.48;;;7.80;;
40755;SDS011;26461;45.630;9.418;2023-03-14T03:34:05;19.25;;;6.80;;
40755;SDS011;26461;45.630;9.418;2023-03-14T03:37:15;10.15;;;5.07;;
40755;SDS011;26461;45.630;9.418;2023-03-14T03:40:25;16.92;;;8.85;;
40755;SDS011;26461;45.630;9.418;2023-03-14T03:43:35;13.57;;;7.50;;
40755;SDS011;26461;45.630;9.418;2023-03-14T03:46:46;13.00;;;7.05;;
40755;SDS011;26461;45.630;9.418;2023-03-14T03:49:56;6.82;;;5.03;;
40755;SDS011;26461;45.630;9.418;2023-03-14T03:53:06;15.95;;;8.13;;
40755;SDS011;26461;45.630;9.418;2023-03-14T03:56:16;17.13;;;7.22;;
40755;SDS011;26461;45.630;9.418;2023-03-14T03:59:27;12.23;;;8.68;;
40755;SDS011;26461;45.630;9.418;2023-03-14T04:02:37;16.20;;;6.25;;
40755;SDS011;26461;45.630;9.418;2023-03-14T04:06:06;8.57;;;7.60;;
40755;SDS011;26461;45.630;9.418;2023-03-14T04:09:21;9.40;;;5.43;;
40755;SDS011;26461;45.630;9.418;2023-03-14T04:12:48;10.35;;;4.60;;
40755;SDS011;26461;45.630;9.418;2023-03-14T04:16:00;11.90;;;6.35;;
40755;SDS011;26461;45.630;9.418;2023-03-14T04:19:10;10.60;;;6.75;;
40755;SDS011;26461;45.630;9.418;2023-03-14T04:22:20;11.23;;;8.15;;
40755;SDS011;26461;45.630;9.418;2023-03-14T04:25:30;12.40;;;6.82;;
40755;SDS011;26461;45.630;9.418;2023-03-14T04:28:42;14.98;;;4.72;;
40755;SDS011;26461;45.630;9.418;2023-03-14T04:31:52;11.02;;;7.15;;
40755;SDS011;26461;45.630;9.418;2023-03-14T04:35:02;14.70;;;4.93;;
40755;SDS011;26461;45.630;9.418;2023-03-14T04:38:12;17.50;;;8.88;;
40755;SDS011;26461;45.630;9.418;2023-03-14T04:41:24;13.95;;;7.05;;
40755;SDS011;26461;45.630;9.418;2023-03-14T04:44:34;8.82;;;4.75;;
40755;SDS011;26461;45.630;9.418;2023-03-14T04:47:44;9.55;;;6.00;;
40755;SDS011;26461;45.630;9.418;2023-03-14T04:50:56;15.00;;;7.07;;
40755;SDS011;26461;45.630;9.418;2023-03-14T04:54:09;12.27;;;7.32;;
40755;SDS011;26461;45.630;9.418;2023-03-14T04:57:15;10.13;;;7.28;;
40755;SDS011;26461;45.630;9.418;2023-03-14T05:00:26;10.43;;;5.13;;
40755;SDS011;26461;45.630;9.418;2023-03-14T05:03:55;25.30;;;7.45;;
40755;SDS011;26461;45.630;9.418;2023-03-14T05:07:28;12.98;;;7.00;;
40755;SDS011;26461;45.630;9.418;2023-03-14T05:10:57;15.00;;;6.65;;
40755;SDS011;26461;45.630;9.418;2023-03-14T05:14:30;9.80;;;5.30;;
40755;SDS011;26461;45.630;9.418;2023-03-14T05:17:53;8.00;;;5.22;;
40755;SDS011;26461;45.630;9.418;2023-03-14T05:21:20;11.50;;;6.90;;
40755;SDS011;26461;45.630;9.418;2023-03-14T05:24:47;6.10;;;5.35;;
40755;SDS011;26461;45.630;9.418;2023-03-14T05:28:09;11.18;;;5.72;;
40755;SDS011;26461;45.630;9.418;2023-03-14T05:31:46;17.75;;;8.02;;
40755;SDS011;26461;45.630;9.418;2023-03-14T05:35:19;12.15;;;8.40;;
40755;SDS011;26461;45.630;9.418;2023-03-14T05:38:49;12.40;;;8.73;;
40755;SDS011;26461;45.630;9.418;2023-03-14T05:42:06;13.93;;;8.13;;
40755;SDS011;26461;45.630;9.418;2023-03-14T05:45:38;17.65;;;10.13;;
40755;SDS011;26461;45.630;9.418;2023-03-14T05:49:11;18.23;;;12.95;;
40755;SDS011;26461;45.630;9.418;2023-03-14T05:52:35;19.50;;;10.13;;
40755;SDS011;26461;45.630;9.418;2023-03-14T05:56:24;17.60;;;9.02;;
40755;SDS011;26461;45.630;9.418;2023-03-14T05:59:55;9.23;;;6.32;;
40755;SDS011;26461;45.630;9.418;2023-03-14T06:03:25;14.02;;;8.05;;
40755;SDS011;26461;45.630;9.418;2023-03-14T06:06:35;15.63;;;6.60;;
40755;SDS011;26461;45.630;9.418;2023-03-14T06:09:46;11.38;;;7.85;;
40755;SDS011;26461;45.630;9.418;2023-03-14T06:12:56;14.65;;;7.95;;
40755;SDS011;26461;45.630;9.418;2023-03-14T06:16:09;8.57;;;7.07;;
40755;SDS011;26461;45.630;9.418;2023-03-14T06:19:19;18.05;;;8.48;;
40755;SDS011;26461;45.630;9.418;2023-03-14T06:22:29;17.00;;;10.05;;
40755;SDS011;26461;45.630;9.418;2023-03-14T06:25:34;12.40;;;7.85;;
40755;SDS011;26461;45.630;9.418;2023-03-14T06:28:45;12.52;;;7.75;;
40755;SDS011;26461;45.630;9.418;2023-03-14T06:31:54;8.38;;;7.20;;
40755;SDS011;26461;45.630;9.418;2023-03-14T06:35:04;15.07;;;7.82;;
40755;SDS011;26461;45.630;9.418;2023-03-14T06:38:18;13.18;;;7.55;;
40755;SDS011;26461;45.630;9.418;2023-03-14T06:41:31;19.45;;;12.07;;
40755;SDS011;26461;45.630;9.418;2023-03-14T06:44:42;10.25;;;7.90;;
40755;SDS011;26461;45.630;9.418;2023-03-14T06:47:52;18.08;;;6.25;;
40755;SDS011;26461;45.630;9.418;2023-03-14T06:51:12;11.07;;;7.28;;
40755;SDS011;26461;45.630;9.418;2023-03-14T06:54:23;14.70;;;7.75;;
40755;SDS011;26461;45.630;9.418;2023-03-14T06:57:34;14.70;;;8.10;;
40755;SDS011;26461;45.630;9.418;2023-03-14T07:00:44;10.50;;;9.95;;
40755;SDS011;26461;45.630;9.418;2023-03-14T07:03:59;18.23;;;6.78;;
40755;SDS011;26461;45.630;9.418;2023-03-14T07:07:11;11.38;;;7.55;;
40755;SDS011;26461;45.630;9.418;2023-03-14T07:10:21;12.90;;;7.57;;
40755;SDS011;26461;45.630;9.418;2023-03-14T07:13:31;12.73;;;6.90;;
40755;SDS011;26461;45.630;9.418;2023-03-14T07:16:43;17.77;;;7.88;;
40755;SDS011;26461;45.630;9.418;2023-03-14T07:19:55;11.20;;;10.23;;
40755;SDS011;26461;45.630;9.418;2023-03-14T07:23:05;25.02;;;7.68;;
40755;SDS011;26461;45.630;9.418;2023-03-14T07:26:21;18.40;;;10.15;;
40755;SDS011;26461;45.630;9.418;2023-03-14T07:29:31;26.08;;;9.07;;
40755;SDS011;26461;45.630;9.418;2023-03-14T07:32:42;10.73;;;7.10;;
40755;SDS011;26461;45.630;9.418;2023-03-14T07:35:52;18.13;;;11.57;;
40755;SDS011;26461;45.630;9.418;2023-03-14T07:39:03;20.55;;;10.60;;
40755;SDS011;26461;45.630;9.418;2023-03-14T07:42:19;16.45;;;9.77;;
40755;SDS011;26461;45.630;9.418;2023-03-14T07:45:48;12.27;;;7.10;;
40755;SDS011;26461;45.630;9.418;2023-03-14T07:48:53;15.07;;;9.65;;
40755;SDS011;26461;45.630;9.418;2023-03-14T07:52:03;13.07;;;9.32;;
40755;SDS011;26461;45.630;9.418;2023-03-14T07:55:13;14.63;;;8.57;;
40755;SDS011;26461;45.630;9.418;2023-03-14T07:58:23;13.98;;;9.02;;
40755;SDS011;26461;45.630;9.418;2023-03-14T08:01:33;17.45;;;7.40;;
40755;SDS011;26461;45.630;9.418;2023-03-14T08:04:44;17.25;;;8.65;;
40755;SDS011;26461;45.630;9.418;2023-03-14T08:07:54;17.33;;;9.55;;
40755;SDS011;26461;45.630;9.418;2023-03-14T08:11:03;18.65;;;9.32;;
40755;SDS011;26461;45.630;9.418;2023-03-14T08:14:17;12.80;;;7.28;;
40755;SDS011;26461;45.630;9.418;2023-03-14T08:17:27;11.60;;;7.28;;
40755;SDS011;26461;45.630;9.418;2023-03-14T08:20:32;11.70;;;7.75;;
40755;SDS011;26461;45.630;9.418;2023-03-14T08:23:42;11.65;;;8.45;;
40755;SDS011;26461;45.630;9.418;2023-03-14T08:26:52;11.30;;;8.10;;
40755;SDS011;26461;45.630;9.418;2023-03-14T08:30:02;16.75;;;8.90;;
40755;SDS011;26461;45.630;9.418;2023-03-14T08:33:13;15.98;;;9.70;;
40755;SDS011;26461;45.630;9.418;2023-03-14T08:36:23;17.73;;;8.48;;
40755;SDS011;26461;45.630;9.418;2023-03-14T08:39:33;12.38;;;7.10;;
40755;SDS011;26461;45.630;9.418;2023-03-14T08:42:43;13.18;;;6.63;;
40755;SDS011;26461;45.630;9.418;2023-03-14T08:45:53;11.38;;;7.35;;
40755;SDS011;26461;45.630;9.418;2023-03-14T08:49:03;14.82;;;7.93;;
40755;SDS011;26461;45.630;9.418;2023-03-14T08:52:14;11.45;;;7.45;;
40755;SDS011;26461;45.630;9.418;2023-03-14T08:55:25;16.85;;;7.68;;
40755;SDS011;26461;45.630;9.418;2023-03-14T08:58:37;19.35;;;7.90;;
40755;SDS011;26461;45.630;9.418;2023-03-14T09:01:48;12.55;;;8.52;;
40755;SDS011;26461;45.630;9.418;2023-03-14T09:04:57;19.15;;;11.95;;
40755;SDS011;26461;45.630;9.418;2023-03-14T09:08:03;12.45;;;8.27;;
40755;SDS011;26461;45.630;9.418;2023-03-14T09:11:08;16.75;;;9.23;;
40755;SDS011;26461;45.630;9.418;2023-03-14T09:14:18;13.65;;;6.75;;
40755;SDS011;26461;45.630;9.418;2023-03-14T09:17:28;17.42;;;6.45;;
40755;SDS011;26461;45.630;9.418;2023-03-14T09:20:39;11.60;;;6.20;;
40755;SDS011;26461;45.630;9.418;2023-03-14T09:23:44;14.27;;;6.97;;
40755;SDS011;26461;45.630;9.418;2023-03-14T09:26:55;23.30;;;7.80;;
40755;SDS011;26461;45.630;9.418;2023-03-14T09:30:00;22.67;;;7.53;;
40755;SDS011;26461;45.630;9.418;2023-03-14T09:33:11;12.15;;;6.22;;
40755;SDS011;26461;45.630;9.418;2023-03-14T09:36:23;17.05;;;8.35;;
40755;SDS011;26461;45.630;9.418;2023-03-14T09:39:33;12.52;;;5.57;;
40755;SDS011;26461;45.630;9.418;2023-03-14T09:42:43;7.82;;;5.18;;
40755;SDS011;26461;45.630;9.418;2023-03-14T09:45:53;12.00;;;6.60;;
40755;SDS011;26461;45.630;9.418;2023-03-14T09:49:05;13.77;;;5.47;;
40755;SDS011;26461;45.630;9.418;2023-03-14T09:52:27;8.20;;;5.30;;
40755;SDS011;26461;45.630;9.418;2023-03-14T09:55:43;19.67;;;8.50;;
40755;SDS011;26461;45.630;9.418;2023-03-14T09:59:03;8.98;;;6.22;;
40755;SDS011;26461;45.630;9.418;2023-03-14T10:02:21;6.03;;;5.40;;
40755;SDS011;26461;45.630;9.418;2023-03-14T10:05:33;7.15;;;4.32;;
40755;SDS011;26461;45.630;9.418;2023-03-14T10:08:43;9.27;;;4.57;;
40755;SDS011;26461;45.630;9.418;2023-03-14T10:11:55;7.10;;;4.40;;
40755;SDS011;26461;45.630;9.418;2023-03-14T10:15:07;8.90;;;6.35;;
40755;SDS011;26461;45.630;9.418;2023-03-14T10:18:21;10.27;;;6.50;;
40755;SDS011;26461;45.630;9.418;2023-03-14T10:21:28;9.90;;;5.85;;
40755;SDS011;26461;45.630;9.418;2023-03-14T10:24:39;10.02;;;5.45;;
40755;SDS011;26461;45.630;9.418;2023-03-14T10:27:59;10.15;;;5.35;;
40755;SDS011;26461;45.630;9.418;2023-03-14T10:31:09;10.65;;;5.32;;
40755;SDS011;26461;45.630;9.418;2023-03-14T10:34:26;14.52;;;6.80;;
40755;SDS011;26461;45.630;9.418;2023-03-14T10:37:50;13.05;;;8.20;;
40755;SDS011;26461;45.630;9.418;2023-03-14T10:41:27;15.73;;;7.05;;
40755;SDS011;26461;45.630;9.418;2023-03-14T10:44:40;18.48;;;9.02;;
40755;SDS011;26461;45.630;9.418;2023-03-14T10:47:51;14.82;;;6.88;;
40755;SDS011;26461;45.630;9.418;2023-03-14T10:51:11;10.95;;;4.63;;
40755;SDS011;26461;45.630;9.418;2023-03-14T10:54:22;10.48;;;4.80;;
40755;SDS011;26461;45.630;9.418;2023-03-14T10:57:30;14.63;;;6.57;;
40755;SDS011;26461;45.630;9.418;2023-03-14T11:00:39;13.63;;;7.18;;
40755;SDS011;26461;45.630;9.418;2023-03-14T11:03:56;9.65;;;8.98;;
40755;SDS011;26461;45.630;9.418;2023-03-14T11:07:22;17.08;;;7.75;;
40755;SDS011;26461;45.630;9.418;2023-03-14T11:10:54;14.38;;;8.10;;
40755;SDS011;26461;45.630;9.418;2023-03-14T11:14:22;11.70;;;7.38;;
40755;SDS011;26461;45.630;9.418;2023-03-14T11:17:45;8.80;;;6.60;;
40755;SDS011;26461;45.630;9.418;2023-03-14T11:21:11;8.32;;;6.45;;
40755;SDS011;26461;45.630;9.418;2023-03-14T11:25:27;10.05;;;4.53;;
40755;SDS011;26461;45.630;9.418;2023-03-14T11:28:22;9.57;;;6.88;;
40755;SDS011;26461;45.630;9.418;2023-03-14T11:32:02;15.38;;;8.07;;
40755;SDS011;26461;45.630;9.418;2023-03-14T11:35:24;7.57;;;4.70;;
40755;SDS011;26461;45.630;9.418;2023-03-14T11:41:57;10.48;;;7.22;;
40755;SDS011;26461;45.630;9.418;2023-03-14T11:45:15;8.63;;;5.65;;
40755;SDS011;26461;45.630;9.418;2023-03-14T11:51:55;10.15;;;5.22;;
40755;SDS011;26461;45.630;9.418;2023-03-14T11:58:36;9.60;;;3.95;;
40755;SDS011;26461;45.630;9.418;2023-03-14T12:08:36;11.57;;;6.78;;
40755;SDS011;26461;45.630;9.418;2023-03-14T12:12:02;11.73;;;5.47;;
40755;SDS011;26461;45.630;9.418;2023-03-14T12:15:18;8.75;;;4.63;;
40755;SDS011;26461;45.630;9.418;2023-03-14T12:21:45;7.63;;;2.80;;
40755;SDS011;26461;45.630;9.418;2023-03-14T12:25:19;6.65;;;3.25;;
40755;SDS011;26461;45.630;9.418;2023-03-14T12:28:31;6.22;;;2.47;;
40755;SDS011;26461;45.630;9.418;2023-03-14T12:31:42;16.27;;;3.88;;
40755;SDS011;26461;45.630;9.418;2023-03-14T12:34:53;12.45;;;4.32;;
40755;SDS011;26461;45.630;9.418;2023-03-14T12:38:03;8.27;;;4.38;;
40755;SDS011;26461;45.630;9.418;2023-03-14T12:41:23;12.90;;;4.47;;
40755;SDS011;26461;45.630;9.418;2023-03-14T12:44:39;6.28;;;3.55;;
40755;SDS011;26461;45.630;9.418;2023-03-14T12:47:52;5.55;;;1.92;;
40755;SDS011;26461;45.630;9.418;2023-03-14T12:51:12;7.35;;;4.45;;
40755;SDS011;26461;45.630;9.418;2023-03-14T12:54:37;10.80;;;4.65;;
40755;SDS011;26461;45.630;9.418;2023-03-14T12:57:58;9.00;;;5.18;;
40755;SDS011;26461;45.630;9.418;2023-03-14T13:01:19;10.88;;;6.30;;
40755;SDS011;26461;45.630;9.418;2023-03-14T13:04:42;13.68;;;6.30;;
40755;SDS011;26461;45.630;9.418;2023-03-14T13:08:04;16.15;;;6.75;;
40755;SDS011;26461;45.630;9.418;2023-03-14T13:11:18;11.15;;;5.18;;
40755;SDS011;26461;45.630;9.418;2023-03-14T13:14:29;10.88;;;4.72;;
40755;SDS011;26461;45.630;9.418;2023-03-14T13:17:35;9.27;;;5.13;;
40755;SDS011;26461;45.630;9.418;2023-03-14T13:20:42;16.25;;;6.20;;
40755;SDS011;26461;45.630;9.418;2023-03-14T13:27:36;18.30;;;7.68;;
40755;SDS011;26461;45.630;9.418;2023-03-14T13:30:47;6.97;;;4.75;;
40755;SDS011;26461;45.630;9.418;2023-03-14T13:33:58;16.45;;;7.65;;
40755;SDS011;26461;45.630;9.418;2023-03-14T13:37:17;7.53;;;5.65;;
40755;SDS011;26461;45.630;9.418;2023-03-14T13:40:28;11.50;;;6.38;;
40755;SDS011;26461;45.630;9.418;2023-03-14T13:43:43;15.90;;;6.20;;
40755;SDS011;26461;45.630;9.418;2023-03-14T13:46:57;17.55;;;8.85;;
40755;SDS011;26461;45.630;9.418;2023-03-14T13:50:14;7.90;;;5.10;;
40755;SDS011;26461;45.630;9.418;2023-03-14T13:53:21;15.10;;;8.57;;
40755;SDS011;26461;45.630;9.418;2023-03-14T13:56:28;10.88;;;6.68;;
40755;SDS011;26461;45.630;9.418;2023-03-14T13:59:40;9.88;;;6.55;;
40755;SDS011;26461;45.630;9.418;2023-03-14T14:02:50;10.70;;;7.40;;
40755;SDS011;26461;45.630;9.418;2023-03-14T14:06:00;13.23;;;7.55;;
40755;SDS011;26461;45.630;9.418;2023-03-14T14:09:11;13.68;;;9.40;;
40755;SDS011;26461;45.630;9.418;2023-03-14T14:15:45;15.02;;;6.93;;
40755;SDS011;26461;45.630;9.418;2023-03-14T14:18:58;13.07;;;9.88;;
40755;SDS011;26461;45.630;9.418;2023-03-14T14:22:09;12.65;;;5.97;;
40755;SDS011;26461;45.630;9.418;2023-03-14T14:25:19;12.80;;;5.75;;
40755;SDS011;26461;45.630;9.418;2023-03-14T14:31:36;20.02;;;8.23;;
40755;SDS011;26461;45.630;9.418;2023-03-14T14:35:03;19.48;;;8.63;;
40755;SDS011;26461;45.630;9.418;2023-03-14T14:38:12;16.92;;;8.65;;
40755;SDS011;26461;45.630;9.418;2023-03-14T14:41:27;16.35;;;10.88;;
40755;SDS011;26461;45.630;9.418;2023-03-14T14:44:39;23.98;;;10.40;;
40755;SDS011;26461;45.630;9.418;2023-03-14T14:47:53;19.45;;;8.43;;
40755;SDS011;26461;45.630;9.418;2023-03-14T14:51:07;18.92;;;11.20;;
40755;SDS011;26461;45.630;9.418;2023-03-14T14:54:18;24.52;;;11.38;;
40755;SDS011;26461;45.630;9.418;2023-03-14T14:57:41;25.63;;;12.80;;
40755;SDS011;26461;45.630;9.418;2023-03-14T15:04:21;17.58;;;8.68;;
40755;SDS011;26461;45.630;9.418;2023-03-14T15:07:32;21.58;;;12.10;;
40755;SDS011;26461;45.630;9.418;2023-03-14T15:10:41;20.10;;;11.88;;
40755;SDS011;26461;45.630;9.418;2023-03-14T15:13:51;16.83;;;12.00;;
40755;SDS011;26461;45.630;9.418;2023-03-14T15:17:02;24.02;;;13.82;;
40755;SDS011;26461;45.630;9.418;2023-03-14T15:20:13;33.30;;;14.48;;
40755;SDS011;26461;45.630;9.418;2023-03-14T15:23:25;17.65;;;12.82;;
40755;SDS011;26461;45.630;9.418;2023-03-14T15:26:35;19.00;;;8.55;;
40755;SDS011;26461;45.630;9.418;2023-03-14T15:29:44;18.17;;;11.73;;
40755;SDS011;26461;45.630;9.418;2023-03-14T15:32:54;16.02;;;11.57;;
40755;SDS011;26461;45.630;9.418;2023-03-14T15:36:06;21.45;;;10.52;;
40755;SDS011;26461;45.630;9.418;2023-03-14T15:39:25;21.20;;;12.70;;
40755;SDS011;26461;45.630;9.418;2023-03-14T15:42:30;17.65;;;10.95;;
40755;SDS011;26461;45.630;9.418;2023-03-14T15:45:40;24.27;;;11.77;;
40755;SDS011;26461;45.630;9.418;2023-03-14T15:48:51;30.75;;;11.43;;
40755;SDS011;26461;45.630;9.418;2023-03-14T15:52:01;20.52;;;9.38;;
40755;SDS011;26461;45.630;9.418;2023-03-14T15:55:11;13.70;;;7.80;;
40755;SDS011;26461;45.630;9.418;2023-03-14T15:58:17;27.17;;;9.73;;
40755;SDS011;26461;45.630;9.418;2023-03-14T16:01:29;13.65;;;10.02;;
40755;SDS011;26461;45.630;9.418;2023-03-14T16:04:39;11.63;;;7.85;;
40755;SDS011;26461;45.630;9.418;2023-03-14T16:08:07;12.15;;;7.32;;
40755;SDS011;26461;45.630;9.418;2023-03-14T16:11:17;13.45;;;8.68;;
40755;SDS011;26461;45.630;9.418;2023-03-14T16:14:25;17.42;;;8.35;;
40755;SDS011;26461;45.630;9.418;2023-03-14T16:17:33;21.65;;;9.77;;
40755;SDS011;26461;45.630;9.418;2023-03-14T16:20:38;17.52;;;8.45;;
40755;SDS011;26461;45.630;9.418;2023-03-14T16:23:43;17.55;;;9.25;;
40755;SDS011;26461;45.630;9.418;2023-03-14T16:26:54;20.83;;;8.65;;
40755;SDS011;26461;45.630;9.418;2023-03-14T16:30:04;13.02;;;7.72;;
40755;SDS011;26461;45.630;9.418;2023-03-14T16:33:15;13.20;;;8.07;;
40755;SDS011;26461;45.630;9.418;2023-03-14T16:36:25;20.45;;;10.05;;
40755;SDS011;26461;45.630;9.418;2023-03-14T16:39:36;15.15;;;8.65;;
40755;SDS011;26461;45.630;9.418;2023-03-14T16:42:41;22.48;;;11.00;;
40755;SDS011;26461;45.630;9.418;2023-03-14T16:45:48;18.85;;;11.60;;
40755;SDS011;26461;45.630;9.418;2023-03-14T16:48:59;14.35;;;11.00;;
40755;SDS011;26461;45.630;9.418;2023-03-14T16:52:09;20.30;;;12.23;;
40755;SDS011;26461;45.630;9.418;2023-03-14T16:55:19;17.08;;;11.68;;
40755;SDS011;26461;45.630;9.418;2023-03-14T16:58:30;21.60;;;10.60;;
40755;SDS011;26461;45.630;9.418;2023-03-14T17:01:35;26.02;;;11.30;;
40755;SDS011;26461;45.630;9.418;2023-03-14T17:04:41;14.50;;;11.90;;
40755;SDS011;26461;45.630;9.418;2023-03-14T17:07:51;27.42;;;13.05;;
40755;SDS011;26461;45.630;9.418;2023-03-14T17:11:01;17.75;;;15.57;;
40755;SDS011;26461;45.630;9.418;2023-03-14T17:14:06;20.38;;;15.45;;
40755;SDS011;26461;45.630;9.418;2023-03-14T17:17:16;22.25;;;12.02;;
40755;SDS011;26461;45.630;9.418;2023-03-14T17:20:21;16.08;;;14.60;;
40755;SDS011;26461;45.630;9.418;2023-03-14T17:23:32;29.80;;;17.73;;
40755;SDS011;26461;45.630;9.418;2023-03-14T17:26:43;26.55;;;16.42;;
40755;SDS011;26461;45.630;9.418;2023-03-14T17:29:53;35.72;;;16.58;;
40755;SDS011;26461;45.630;9.418;2023-03-14T17:33:04;26.08;;;15.82;;
40755;SDS011;26461;45.630;9.418;2023-03-14T17:36:14;25.80;;;13.70;;
40755;SDS011;26461;45.630;9.418;2023-03-14T17:39:26;24.27;;;13.63;;
40755;SDS011;26461;45.630;9.418;2023-03-14T17:42:38;21.95;;;11.88;;
40755;SDS011;26461;45.630;9.418;2023-03-14T17:45:55;15.45;;;13.18;;
40755;SDS011;26461;45.630;9.418;2023-03-14T17:49:01;15.07;;;10.02;;
40755;SDS011;26461;45.630;9.418;2023-03-14T17:52:11;22.77;;;12.32;;
40755;SDS011;26461;45.630;9.418;2023-03-14T17:55:21;16.27;;;10.32;;
40755;SDS011;26461;45.630;9.418;2023-03-14T17:58:31;17.15;;;10.25;;
40755;SDS011;26461;45.630;9.418;2023-03-14T18:01:46;20.17;;;10.85;;
40755;SDS011;26461;45.630;9.418;2023-03-14T18:04:55;17.90;;;8.85;;
40755;SDS011;26461;45.630;9.418;2023-03-14T18:08:06;18.70;;;13.20;;
40755;SDS011;26461;45.630;9.418;2023-03-14T18:11:17;21.92;;;10.82;;
40755;SDS011;26461;45.630;9.418;2023-03-14T18:14:27;22.42;;;9.48;;
40755;SDS011;26461;45.630;9.418;2023-03-14T18:17:37;20.63;;;12.13;;
40755;SDS011;26461;45.630;9.418;2023-03-14T18:20:50;17.10;;;11.73;;
40755;SDS011;26461;45.630;9.418;2023-03-14T18:24:02;18.35;;;10.30;;
40755;SDS011;26461;45.630;9.418;2023-03-14T18:27:13;17.17;;;9.88;;
40755;SDS011;26461;45.630;9.418;2023-03-14T18:30:18;21.45;;;12.35;;
40755;SDS011;26461;45.630;9.418;2023-03-14T18:33:28;23.13;;;9.88;;
40755;SDS011;26461;45.630;9.418;2023-03-14T18:36:46;16.17;;;9.63;;
40755;SDS011;26461;45.630;9.418;2023-03-14T18:39:56;16.75;;;11.85;;
40755;SDS011;26461;45.630;9.418;2023-03-14T18:43:06;22.23;;;9.93;;
40755;SDS011;26461;45.630;9.418;2023-03-14T18:46:16;21.48;;;12.10;;
40755;SDS011;26461;45.630;9.418;2023-03-14T18:49:26;27.45;;;14.70;;
40755;SDS011;26461;45.630;9.418;2023-03-14T18:52:36;17.40;;;9.70;;
40755;SDS011;26461;45.630;9.418;2023-03-14T18:55:46;19.27;;;11.85;;
40755;SDS011;26461;45.630;9.418;2023-03-14T18:58:56;15.52;;;11.65;;
40755;SDS011;26461;45.630;9.418;2023-03-14T19:02:07;12.43;;;10.23;;
40755;SDS011;26461;45.630;9.418;2023-03-14T19:05:17;19.92;;;11.13;;
40755;SDS011;26461;45.630;9.418;2023-03-14T19:08:28;16.42;;;10.15;;
40755;SDS011;26461;45.630;9.418;2023-03-14T19:11:38;17.08;;;11.02;;
40755;SDS011;26461;45.630;9.418;2023-03-14T19:14:48;17.38;;;9.52;;
40755;SDS011;26461;45.630;9.418;2023-03-14T19:17:58;21.83;;;12.40;;
40755;SDS011;26461;45.630;9.418;2023-03-14T19:21:08;23.95;;;13.00;;
40755;SDS011;26461;45.630;9.418;2023-03-14T19:24:22;28.50;;;13.85;;
40755;SDS011;26461;45.630;9.418;2023-03-14T19:27:32;14.77;;;12.60;;
40755;SDS011;26461;45.630;9.418;2023-03-14T19:30:42;20.10;;;11.43;;
40755;SDS011;26461;45.630;9.418;2023-03-14T19:33:52;17.38;;;9.85;;
40755;SDS011;26461;45.630;9.418;2023-03-14T19:37:02;16.75;;;11.27;;
40755;SDS011;26461;45.630;9.418;2023-03-14T19:40:12;13.63;;;8.52;;
40755;SDS011;26461;45.630;9.418;2023-03-14T19:43:24;15.18;;;7.47;;
40755;SDS011;26461;45.630;9.418;2023-03-14T19:46:35;26.20;;;6.35;;